createdAt,value
2023-01-20T00:00:12.708Z,29.30
2023-01-20T00:03:01.758Z,27.77
2023-01-20T00:05:53.754Z,28.77
2023-01-20T00:08:42.665Z,28.57
2023-01-20T00:11:32.335Z,28.47
2023-01-20T00:14:21.247Z,29.10
2023-01-20T00:17:11.444Z,27.57
2023-01-20T00:20:00.151Z,28.80
2023-01-20T00:22:48.894Z,29.60
2023-01-20T00:25:38.053Z,31.00
2023-01-20T00:28:27.194Z,31.50
2023-01-20T00:31:17.884Z,32.70
2023-01-20T00:34:08.512Z,32.70
2023-01-20T00:36:57.295Z,33.80
2023-01-20T00:39:46.077Z,34.87
2023-01-20T00:42:34.801Z,35.87
2023-01-20T00:45:23.525Z,34.13
2023-01-20T00:48:12.304Z,29.93
2023-01-20T00:51:02.791Z,29.17
2023-01-20T00:53:51.722Z,29.67
2023-01-20T00:56:40.497Z,27.93
2023-01-20T00:59:29.474Z,26.97
2023-01-20T01:02:18.320Z,26.40
2023-01-20T01:05:08.203Z,25.10
2023-01-20T01:07:58.438Z,24.60
2023-01-20T01:10:47.336Z,24.90
2023-01-20T01:13:37.409Z,22.23
2023-01-20T01:16:26.263Z,23.50
2023-01-20T01:19:16.048Z,23.97
2023-01-20T01:22:04.742Z,24.03
2023-01-20T01:24:56.726Z,23.40
2023-01-20T01:27:45.925Z,23.10
2023-01-20T01:30:35.157Z,21.77
2023-01-20T01:33:23.847Z,22.70
2023-01-20T01:36:15.361Z,22.37
2023-01-20T01:39:04.228Z,21.97
2023-01-20T01:41:54.486Z,22.33
2023-01-20T01:45:24.629Z,21.77
2023-01-20T01:48:13.661Z,22.27
2023-01-20T01:51:07.215Z,21.93
2023-01-20T01:54:01.585Z,21.73
2023-01-20T01:56:51.595Z,21.30
2023-01-20T01:59:41.939Z,21.53
2023-01-20T02:02:31.552Z,22.03
2023-01-20T02:05:22.132Z,21.03
2023-01-20T02:08:10.957Z,21.27
2023-01-20T02:10:59.759Z,21.30
2023-01-20T02:13:48.851Z,21.53
2023-01-20T02:16:50.578Z,21.63
2023-01-20T02:20:21.955Z,22.57
2023-01-20T02:23:14.593Z,21.07
2023-01-20T02:26:41.298Z,22.37
2023-01-20T02:29:53.809Z,22.23
2023-01-20T02:32:54.492Z,22.03
2023-01-20T02:35:47.468Z,22.47
2023-01-20T02:38:43.567Z,23.07
2023-01-20T02:41:40.042Z,22.90
2023-01-20T02:44:37.049Z,22.93
2023-01-20T02:47:32.381Z,23.73
2023-01-20T02:50:27.238Z,22.63
2023-01-20T02:53:18.132Z,23.67
2023-01-20T02:56:09.880Z,24.30
2023-01-20T02:59:02.345Z,25.00
2023-01-20T03:01:56.371Z,23.37
2023-01-20T03:04:51.665Z,24.43
2023-01-20T03:07:44.084Z,22.97
2023-01-20T03:10:36.832Z,24.20
2023-01-20T03:13:31.758Z,23.47
2023-01-20T03:16:23.763Z,23.17
2023-01-20T03:19:12.984Z,21.30
2023-01-20T03:22:01.943Z,22.17
2023-01-20T03:24:52.904Z,21.73
2023-01-20T03:27:42.843Z,23.17
2023-01-20T03:30:31.961Z,22.60
2023-01-20T03:33:20.990Z,22.03
2023-01-20T03:36:10.732Z,23.27
2023-01-20T03:39:00.619Z,23.57
2023-01-20T03:42:02.990Z,23.07
2023-01-20T03:45:02.251Z,23.07
2023-01-20T03:47:58.314Z,22.93
2023-01-20T03:50:53.926Z,23.80
2023-01-20T03:53:49.117Z,23.77
2023-01-20T03:56:43.128Z,26.03
2023-01-20T03:59:35.529Z,25.17
2023-01-20T04:02:25.247Z,25.50
2023-01-20T04:05:15.409Z,25.63
2023-01-20T04:08:09.196Z,25.73
2023-01-20T04:11:01.118Z,25.70
2023-01-20T04:13:51.132Z,27.50
2023-01-20T04:16:41.552Z,26.60
2023-01-20T04:19:30.283Z,25.40
2023-01-20T04:22:23.918Z,27.03
2023-01-20T04:25:18.806Z,25.53
2023-01-20T04:28:07.476Z,24.67
2023-01-20T04:30:56.263Z,26.83
2023-01-20T04:33:46.323Z,25.80
2023-01-20T04:36:35.097Z,26.80
2023-01-20T04:39:23.901Z,26.63
2023-01-20T04:42:12.716Z,25.00
2023-01-20T04:45:01.557Z,24.93
2023-01-20T04:47:50.154Z,23.53
2023-01-20T04:50:41.931Z,25.47
2023-01-20T04:53:31.203Z,25.13
2023-01-20T04:56:20.004Z,23.27
2023-01-20T04:59:08.629Z,24.13
2023-01-20T05:01:57.436Z,24.60
2023-01-20T05:04:46.093Z,24.50
2023-01-20T05:07:36.276Z,25.53
2023-01-20T05:10:25.031Z,26.40
2023-01-20T05:13:13.795Z,25.77
2023-01-20T05:16:03.167Z,23.63
2023-01-20T05:18:52.542Z,23.97
2023-01-20T05:21:42.675Z,23.87
2023-01-20T05:24:33.565Z,23.90
2023-01-20T05:27:22.343Z,23.87
2023-01-20T05:30:12.287Z,23.43
2023-01-20T05:33:01.254Z,23.23
2023-01-20T05:35:50.070Z,23.87
2023-01-20T05:38:39.216Z,22.67
2023-01-20T05:41:29.606Z,24.50
2023-01-20T05:44:18.408Z,23.33
2023-01-20T05:47:07.231Z,22.67
2023-01-20T05:49:55.914Z,23.60
2023-01-20T05:52:44.560Z,22.63
2023-01-20T05:55:33.318Z,22.80
2023-01-20T05:58:23.349Z,23.37
2023-01-20T06:01:14.629Z,23.43
2023-01-20T06:04:03.533Z,23.97
2023-01-20T06:06:52.272Z,24.20
2023-01-20T06:09:40.930Z,25.13
2023-01-20T06:12:32.622Z,25.20
2023-01-20T06:15:23.798Z,24.20
2023-01-20T06:18:12.954Z,23.70
2023-01-20T06:21:01.941Z,24.93
2023-01-20T06:23:50.768Z,25.10
2023-01-20T06:26:39.497Z,25.30
2023-01-20T06:29:31.130Z,24.73
2023-01-20T06:32:21.278Z,24.53
2023-01-20T06:35:11.418Z,23.97
2023-01-20T06:38:00.394Z,24.07
2023-01-20T06:40:49.311Z,24.30
2023-01-20T06:43:40.297Z,24.37
2023-01-20T06:46:30.540Z,25.00
2023-01-20T06:49:20.957Z,23.70
2023-01-20T06:52:09.993Z,24.60
2023-01-20T06:54:58.761Z,23.40
2023-01-20T06:57:47.451Z,23.50
2023-01-20T07:00:36.541Z,21.30
2023-01-20T07:03:25.841Z,21.90
2023-01-20T07:06:30.833Z,21.77
2023-01-20T07:09:19.502Z,21.47
2023-01-20T07:12:08.825Z,20.83
2023-01-20T07:14:57.518Z,20.73
2023-01-20T07:17:46.272Z,21.10
2023-01-20T07:20:35.234Z,22.30
2023-01-20T07:23:25.936Z,22.60
2023-01-20T07:26:16.528Z,23.30
2023-01-20T07:29:05.353Z,22.93
2023-01-20T07:31:54.190Z,22.80
2023-01-20T07:34:42.987Z,23.27
2023-01-20T07:37:31.810Z,24.40
2023-01-20T07:40:21.948Z,22.93
2023-01-20T07:43:10.646Z,22.03
2023-01-20T07:46:00.141Z,24.17
2023-01-20T07:48:49.577Z,23.97
2023-01-20T07:51:40.260Z,23.80
2023-01-20T07:54:29.105Z,23.77
2023-01-20T07:57:19.314Z,22.97
2023-01-20T08:00:09.683Z,23.73
2023-01-20T08:02:58.459Z,22.97
2023-01-20T08:05:47.232Z,23.73
2023-01-20T08:08:37.079Z,24.00
2023-01-20T08:11:25.864Z,23.20
2023-01-20T08:14:16.180Z,23.57
2023-01-20T08:17:05.638Z,24.73
2023-01-20T08:19:54.445Z,23.77
2023-01-20T08:22:43.339Z,22.43
2023-01-20T08:25:32.010Z,23.10
2023-01-20T08:28:20.814Z,21.13
2023-01-20T08:31:16.941Z,22.13
2023-01-20T08:34:06.616Z,22.03
2023-01-20T08:36:57.441Z,21.83
2023-01-20T08:39:47.416Z,21.60
2023-01-20T08:42:40.053Z,20.93
2023-01-20T08:45:29.181Z,21.00
2023-01-20T08:48:20.504Z,20.50
2023-01-20T08:51:14.259Z,21.47
2023-01-20T08:54:03.602Z,22.90
2023-01-20T08:56:58.651Z,21.87
2023-01-20T08:59:52.066Z,22.60
2023-01-20T09:02:41.072Z,22.67
2023-01-20T09:05:31.918Z,21.13
2023-01-20T09:08:21.854Z,20.50
2023-01-20T09:11:13.268Z,21.23
2023-01-20T09:14:02.449Z,20.47
2023-01-20T09:16:51.322Z,20.90
2023-01-20T09:19:40.004Z,18.43
2023-01-20T09:22:30.518Z,20.77
2023-01-20T09:25:19.546Z,18.87
2023-01-20T09:28:08.286Z,17.83
2023-01-20T09:31:00.230Z,18.47
2023-01-20T09:33:49.294Z,18.93
2023-01-20T09:36:38.565Z,19.00
2023-01-20T09:39:46.079Z,19.53
2023-01-20T09:43:06.689Z,19.23
2023-01-20T09:46:01.019Z,19.53
2023-01-20T09:49:16.530Z,18.83
2023-01-20T09:52:32.344Z,19.77
2023-01-20T09:55:27.924Z,19.73
2023-01-20T09:58:24.104Z,19.53
2023-01-20T10:01:19.269Z,18.77
2023-01-20T10:04:15.223Z,18.97
2023-01-20T10:07:11.107Z,19.60
2023-01-20T10:10:10.717Z,18.13
2023-01-20T10:13:06.966Z,18.87
2023-01-20T10:15:58.579Z,20.00
2023-01-20T10:18:53.062Z,18.83
2023-01-20T10:21:46.006Z,19.63
2023-01-20T10:24:38.834Z,19.80
2023-01-20T10:27:31.121Z,19.43
2023-01-20T10:30:25.523Z,19.80
2023-01-20T10:33:16.354Z,19.23
2023-01-20T10:36:05.896Z,20.13
2023-01-20T10:38:59.619Z,21.30
2023-01-20T10:41:54.014Z,21.37
2023-01-20T10:44:43.612Z,21.10
2023-01-20T10:47:44.968Z,21.93
2023-01-20T10:50:48.874Z,21.30
2023-01-20T10:53:49.118Z,20.83
2023-01-20T10:56:43.967Z,19.87
2023-01-20T10:59:36.071Z,17.10
2023-01-20T11:02:28.034Z,17.47
2023-01-20T11:05:22.209Z,18.00
2023-01-20T11:08:18.344Z,17.60
2023-01-20T11:11:13.838Z,18.03
2023-01-20T11:14:04.031Z,19.10
2023-01-20T11:16:58.262Z,18.70
2023-01-20T11:19:50.465Z,17.83
2023-01-20T11:22:46.467Z,17.93
2023-01-20T11:25:35.445Z,19.03
2023-01-20T11:28:25.440Z,20.57
2023-01-20T11:31:14.774Z,19.03
2023-01-20T11:34:21.164Z,19.23
2023-01-20T11:37:18.966Z,17.73
2023-01-20T11:40:21.346Z,17.43
2023-01-20T11:43:35.361Z,17.43
2023-01-20T11:46:28.836Z,16.87
2023-01-20T11:49:22.163Z,16.07
2023-01-20T11:52:21.456Z,16.83
2023-01-20T11:55:14.389Z,16.30
2023-01-20T11:58:06.089Z,17.20
2023-01-20T12:01:02.260Z,17.60
2023-01-20T12:04:22.809Z,17.90
2023-01-20T12:07:15.478Z,16.90
2023-01-20T12:10:13.603Z,17.03
2023-01-20T12:13:09.146Z,16.27
2023-01-20T12:16:02.289Z,16.87
2023-01-20T12:19:02.169Z,16.30
2023-01-20T12:21:54.298Z,17.37
2023-01-20T12:25:09.195Z,17.67
2023-01-20T12:28:04.242Z,18.87
2023-01-20T12:31:03.097Z,18.37
2023-01-20T12:33:56.661Z,19.93
2023-01-20T12:37:05.892Z,20.80
2023-01-20T12:40:07.376Z,20.00
2023-01-20T12:43:22.222Z,20.43
2023-01-20T12:46:34.526Z,19.60
2023-01-20T12:49:48.960Z,19.07
2023-01-20T12:52:50.339Z,18.37
2023-01-20T12:55:52.711Z,17.87
2023-01-20T12:58:52.108Z,18.80
2023-01-20T13:01:55.727Z,16.80
2023-01-20T13:05:18.629Z,15.77
2023-01-20T13:08:14.872Z,12.33
2023-01-20T13:11:17.246Z,12.77
2023-01-20T13:14:17.142Z,13.47
2023-01-20T13:17:18.871Z,14.53
2023-01-20T13:20:21.257Z,14.33
2023-01-20T13:23:14.809Z,13.60
2023-01-20T13:26:06.277Z,14.63
2023-01-20T13:28:56.949Z,14.47
2023-01-20T13:31:47.497Z,13.40
2023-01-20T13:34:41.905Z,13.20
2023-01-20T13:37:36.865Z,12.00
2023-01-20T13:40:51.115Z,11.17
2023-01-20T13:43:54.757Z,10.67
2023-01-20T13:46:48.504Z,10.93
2023-01-20T13:49:51.840Z,11.83
2023-01-20T13:53:22.318Z,10.97
2023-01-20T13:56:33.695Z,10.70
2023-01-20T13:59:24.951Z,10.13
2023-01-20T14:02:19.197Z,10.70
2023-01-20T14:05:23.610Z,10.03
2023-01-20T14:08:15.997Z,11.13
2023-01-20T14:11:08.513Z,11.20
2023-01-20T14:13:59.943Z,11.53
2023-01-20T14:16:48.910Z,11.13
2023-01-20T14:19:38.412Z,11.37
2023-01-20T14:22:33.053Z,12.10
2023-01-20T14:25:24.341Z,12.03
2023-01-20T14:28:20.855Z,10.53
2023-01-20T14:31:37.640Z,10.10
2023-01-20T14:34:30.613Z,10.47
2023-01-20T14:37:28.904Z,11.60
2023-01-20T14:40:25.612Z,12.00
2023-01-20T14:43:20.372Z,12.40
2023-01-20T14:46:09.825Z,13.00
2023-01-20T14:49:00.163Z,12.70
2023-01-20T14:51:51.493Z,13.77
2023-01-20T14:54:44.356Z,14.57
2023-01-20T14:57:35.586Z,15.33
2023-01-20T15:00:27.373Z,15.07
2023-01-20T15:03:20.925Z,15.30
2023-01-20T15:06:22.139Z,16.03
2023-01-20T15:09:31.457Z,15.63
2023-01-20T15:12:42.726Z,15.90
2023-01-20T15:15:33.051Z,15.00
2023-01-20T15:18:23.722Z,16.07
2023-01-20T15:21:23.543Z,16.53
2023-01-20T15:24:14.725Z,16.90
2023-01-20T15:27:04.431Z,16.70
2023-01-20T15:30:18.820Z,16.70
2023-01-20T15:33:10.729Z,15.70
2023-01-20T15:36:01.660Z,17.07
2023-01-20T15:38:51.073Z,15.30
2023-01-20T15:41:40.221Z,15.67
2023-01-20T15:44:32.418Z,14.60
2023-01-20T15:47:31.935Z,15.00
2023-01-20T15:50:23.254Z,15.37
2023-01-20T15:53:13.202Z,13.77
2023-01-20T15:56:03.167Z,16.10
2023-01-20T15:58:52.962Z,14.43
2023-01-20T16:01:41.975Z,15.73
2023-01-20T16:04:32.590Z,15.23
2023-01-20T16:07:22.475Z,16.00
2023-01-20T16:10:17.540Z,16.07
2023-01-20T16:13:06.437Z,13.97
2023-01-20T16:15:58.582Z,15.70
2023-01-20T16:18:48.016Z,14.87
2023-01-20T16:21:38.285Z,14.03
2023-01-20T16:24:27.161Z,13.60
2023-01-20T16:27:19.015Z,13.30
2023-01-20T16:30:09.056Z,11.60
2023-01-20T16:32:58.204Z,10.97
2023-01-20T16:35:48.674Z,10.17
2023-01-20T16:38:39.865Z,11.23
2023-01-20T16:41:31.586Z,10.63
2023-01-20T16:44:20.420Z,11.73
2023-01-20T16:47:09.458Z,12.77
2023-01-20T16:49:58.315Z,13.63
2023-01-20T16:52:47.617Z,14.43
2023-01-20T16:55:37.955Z,15.67
2023-01-20T16:58:26.915Z,17.47
2023-01-20T17:01:20.955Z,16.17
2023-01-20T17:04:10.918Z,16.07
2023-01-20T17:07:00.107Z,15.40
2023-01-20T17:09:48.980Z,15.53
2023-01-20T17:12:39.262Z,16.03
2023-01-20T17:15:34.215Z,16.00
2023-01-20T17:18:23.640Z,15.87
2023-01-20T17:21:13.684Z,15.57
2023-01-20T17:24:08.745Z,15.00
2023-01-20T17:27:00.023Z,15.07
2023-01-20T17:29:50.855Z,13.60
2023-01-20T17:32:39.704Z,13.90
2023-01-20T17:35:30.119Z,14.00
2023-01-20T17:38:19.144Z,13.67
2023-01-20T17:41:08.915Z,12.70
2023-01-20T17:43:57.637Z,13.13
2023-01-20T17:46:50.261Z,11.90
2023-01-20T17:49:39.603Z,12.70
2023-01-20T17:52:31.637Z,12.87
2023-01-20T17:58:18.569Z,14.10
2023-01-20T18:01:11.884Z,13.07
2023-01-20T18:04:04.412Z,12.90
2023-01-20T18:06:53.251Z,12.87
2023-01-20T18:09:43.055Z,13.57
2023-01-20T18:12:32.404Z,13.20
2023-01-20T18:15:21.756Z,12.47
2023-01-20T18:18:10.596Z,12.77
2023-01-20T18:21:10.444Z,13.03
2023-01-20T18:24:00.258Z,13.13
2023-01-20T18:26:49.249Z,12.80
2023-01-20T18:29:37.904Z,12.77
2023-01-20T18:32:26.914Z,13.33
2023-01-20T18:35:16.150Z,13.50
2023-01-20T18:38:06.345Z,12.00
2023-01-20T18:40:55.193Z,13.23
2023-01-20T18:43:44.065Z,12.23
2023-01-20T18:46:33.595Z,12.60
2023-01-20T18:49:22.636Z,12.93
2023-01-20T18:52:11.658Z,11.93
2023-01-20T18:55:01.978Z,12.70
2023-01-20T18:57:50.891Z,12.93
2023-01-20T19:00:39.842Z,12.90
2023-01-20T19:03:29.022Z,12.37
2023-01-20T19:06:19.154Z,11.80
2023-01-20T19:09:08.711Z,11.53
2023-01-20T19:12:06.798Z,11.47
2023-01-20T19:14:56.347Z,11.27
2023-01-20T19:17:45.078Z,10.30
2023-01-20T19:20:33.791Z,10.83
2023-01-20T19:23:22.566Z,10.13
2023-01-20T19:26:14.043Z,10.00
2023-01-20T19:29:06.909Z,10.20
2023-01-20T19:31:55.932Z,9.23
2023-01-20T19:34:45.944Z,9.87
2023-01-20T19:37:34.688Z,9.20
2023-01-20T19:40:23.663Z,9.27
2023-01-20T19:43:12.523Z,9.63
2023-01-20T19:46:04.460Z,9.90
2023-01-20T19:48:57.389Z,10.30
2023-01-20T19:51:46.353Z,10.33
2023-01-20T19:54:36.711Z,10.67
2023-01-20T19:57:27.407Z,10.43
2023-01-20T20:00:17.337Z,10.43
2023-01-20T20:03:08.394Z,10.40
2023-01-20T20:05:57.900Z,10.40
2023-01-20T20:08:46.919Z,10.47
2023-01-20T20:11:36.319Z,9.90
2023-01-20T20:14:27.418Z,10.73
2023-01-20T20:17:16.462Z,10.00
2023-01-20T20:20:07.699Z,9.40
2023-01-20T20:22:56.637Z,9.60
2023-01-20T20:25:49.850Z,9.43
2023-01-20T20:28:38.830Z,9.53
2023-01-20T20:31:29.653Z,9.47
2023-01-20T20:34:19.675Z,9.73
2023-01-20T20:37:09.711Z,9.77
2023-01-20T20:39:58.553Z,10.33
2023-01-20T20:42:48.672Z,10.13
2023-01-20T20:45:37.496Z,9.50
2023-01-20T20:48:26.291Z,9.90
2023-01-20T20:51:16.877Z,9.90
2023-01-20T20:54:07.072Z,9.90
2023-01-20T20:56:55.855Z,10.13
2023-01-20T20:59:58.254Z,8.77
2023-01-20T21:02:48.093Z,8.93
2023-01-20T21:05:37.107Z,9.17
2023-01-20T21:08:26.101Z,10.17
2023-01-20T21:11:16.227Z,10.80
2023-01-20T21:14:05.077Z,9.87
2023-01-20T21:16:53.947Z,10.50
2023-01-20T21:19:42.801Z,9.37
2023-01-20T21:22:34.602Z,9.50
2023-01-20T21:25:24.210Z,9.10
2023-01-20T21:28:17.532Z,8.83
2023-01-20T21:31:09.266Z,8.97
2023-01-20T21:33:59.298Z,8.23
2023-01-20T21:36:48.290Z,8.03
2023-01-20T21:39:37.042Z,8.27
2023-01-20T21:42:25.882Z,8.73
2023-01-20T21:45:15.108Z,8.37
2023-01-20T21:48:24.138Z,7.80
2023-01-20T21:51:30.329Z,8.53
2023-01-20T21:54:19.583Z,9.43
2023-01-20T21:57:08.434Z,8.87
2023-01-20T21:59:57.221Z,9.23
2023-01-20T22:02:47.776Z,9.93
2023-01-20T22:05:39.749Z,9.60
2023-01-20T22:08:30.653Z,10.17
2023-01-20T22:11:19.527Z,9.43
2023-01-20T22:14:08.465Z,9.50
2023-01-20T22:16:57.299Z,9.00
2023-01-20T22:19:47.685Z,8.50
2023-01-20T22:22:36.507Z,8.47
2023-01-20T22:25:25.402Z,8.50
2023-01-20T22:28:14.094Z,8.90
2023-01-20T22:31:07.043Z,8.37
2023-01-20T22:34:11.369Z,8.10
2023-01-20T22:37:02.001Z,7.87
2023-01-20T22:39:51.356Z,7.37
2023-01-20T22:42:40.002Z,7.77
2023-01-20T22:45:30.675Z,7.90
2023-01-20T22:48:19.700Z,8.33
2023-01-20T22:51:10.219Z,8.03
2023-01-20T22:54:02.167Z,8.00
2023-01-20T22:56:51.138Z,8.60
2023-01-20T22:59:39.803Z,8.90
2023-01-20T23:02:31.004Z,9.77
2023-01-20T23:05:19.981Z,9.67
2023-01-20T23:08:08.757Z,9.23
2023-01-20T23:11:03.928Z,9.30
2023-01-20T23:13:53.504Z,9.30
2023-01-20T23:16:43.372Z,10.70
2023-01-20T23:19:32.381Z,10.57
2023-01-20T23:22:21.223Z,11.17
2023-01-20T23:25:12.566Z,11.27
2023-01-20T23:28:02.696Z,10.20
2023-01-20T23:30:51.507Z,10.93
2023-01-20T23:33:43.409Z,10.23
2023-01-20T23:36:32.609Z,11.20
2023-01-20T23:39:21.569Z,12.30
2023-01-20T23:42:10.407Z,11.53
2023-01-20T23:45:01.135Z,11.00
2023-01-20T23:47:50.044Z,10.53
2023-01-20T23:50:42.435Z,11.90
2023-01-20T23:53:33.084Z,11.77
2023-01-20T23:56:24.362Z,12.77
2023-01-20T23:59:13.457Z,11.87
